sensor_id;sensor_type;location;lat;lon;timestamp;P1;durP1;ratioP1;P2;durP2;ratioP2
76689;SDS011;70102;44.506;0.220;2023-09-30T00:02:28;10.90;;;2.90;;
76689;SDS011;70102;44.506;0.220;2023-09-30T00:08:00;14.00;;;3.17;;
76689;SDS011;70102;44.506;0.220;2023-09-30T00:13:34;12.13;;;3.13;;
76689;SDS011;70102;44.506;0.220;2023-09-30T00:19:07;15.70;;;3.43;;
76689;SDS011;70102;44.506;0.220;2023-09-30T00:24:40;11.10;;;3.20;;
76689;SDS011;70102;44.506;0.220;2023-09-30T00:30:14;7.43;;;2.40;;
76689;SDS011;70102;44.506;0.220;2023-09-30T00:35:46;11.27;;;3.43;;
76689;SDS011;70102;44.506;0.220;2023-09-30T00:41:20;15.73;;;3.33;;
76689;SDS011;70102;44.506;0.220;2023-09-30T00:46:53;11.07;;;2.60;;
76689;SDS011;70102;44.506;0.220;2023-09-30T00:52:26;14.77;;;3.80;;
76689;SDS011;70102;44.506;0.220;2023-09-30T00:57:59;12.73;;;4.37;;
76689;SDS011;70102;44.506;0.220;2023-09-30T01:03:33;8.47;;;3.27;;
76689;SDS011;70102;44.506;0.220;2023-09-30T01:09:06;9.80;;;3.10;;
76689;SDS011;70102;44.506;0.220;2023-09-30T01:14:38;8.53;;;2.67;;
76689;SDS011;70102;44.506;0.220;2023-09-30T01:20:11;11.93;;;3.63;;
76689;SDS011;70102;44.506;0.220;2023-09-30T01:25:44;14.73;;;4.00;;
76689;SDS011;70102;44.506;0.220;2023-09-30T01:31:17;12.10;;;3.80;;
76689;SDS011;70102;44.506;0.220;2023-09-30T01:36:49;12.67;;;3.20;;
76689;SDS011;70102;44.506;0.220;2023-09-30T01:42:22;11.30;;;2.80;;
76689;SDS011;70102;44.506;0.220;2023-09-30T01:47:55;12.77;;;3.33;;
76689;SDS011;70102;44.506;0.220;2023-09-30T01:53:27;9.23;;;2.87;;
76689;SDS011;70102;44.506;0.220;2023-09-30T01:59:00;8.43;;;2.60;;
76689;SDS011;70102;44.506;0.220;2023-09-30T02:04:33;6.83;;;2.50;;
76689;SDS011;70102;44.506;0.220;2023-09-30T02:10:07;8.90;;;2.33;;
76689;SDS011;70102;44.506;0.220;2023-09-30T02:15:40;8.27;;;2.93;;
76689;SDS011;70102;44.506;0.220;2023-09-30T02:21:13;11.53;;;2.53;;
76689;SDS011;70102;44.506;0.220;2023-09-30T02:26:45;12.27;;;2.83;;
76689;SDS011;70102;44.506;0.220;2023-09-30T02:32:17;7.90;;;2.90;;
76689;SDS011;70102;44.506;0.220;2023-09-30T02:37:51;9.63;;;3.03;;
76689;SDS011;70102;44.506;0.220;2023-09-30T02:43:24;9.53;;;2.63;;
76689;SDS011;70102;44.506;0.220;2023-09-30T02:48:58;10.27;;;2.70;;
76689;SDS011;70102;44.506;0.220;2023-09-30T02:54:30;5.27;;;2.40;;
76689;SDS011;70102;44.506;0.220;2023-09-30T03:00:03;10.63;;;2.47;;
76689;SDS011;70102;44.506;0.220;2023-09-30T03:05:36;9.47;;;2.40;;
76689;SDS011;70102;44.506;0.220;2023-09-30T03:11:09;15.47;;;2.87;;
76689;SDS011;70102;44.506;0.220;2023-09-30T03:16:42;12.43;;;3.37;;
76689;SDS011;70102;44.506;0.220;2023-09-30T03:22:15;9.67;;;2.70;;
76689;SDS011;70102;44.506;0.220;2023-09-30T03:27:47;7.50;;;2.60;;
76689;SDS011;70102;44.506;0.220;2023-09-30T03:33:21;18.17;;;2.77;;
76689;SDS011;70102;44.506;0.220;2023-09-30T03:38:53;8.67;;;3.10;;
76689;SDS011;70102;44.506;0.220;2023-09-30T03:44:26;7.80;;;3.47;;
76689;SDS011;70102;44.506;0.220;2023-09-30T03:49:59;11.57;;;3.30;;
76689;SDS011;70102;44.506;0.220;2023-09-30T03:55:31;7.63;;;2.33;;
76689;SDS011;70102;44.506;0.220;2023-09-30T04:01:03;9.30;;;2.67;;
76689;SDS011;70102;44.506;0.220;2023-09-30T04:06:35;6.40;;;2.70;;
76689;SDS011;70102;44.506;0.220;2023-09-30T04:12:09;10.47;;;3.00;;
76689;SDS011;70102;44.506;0.220;2023-09-30T04:17:42;5.50;;;2.93;;
76689;SDS011;70102;44.506;0.220;2023-09-30T04:23:14;8.40;;;2.63;;
76689;SDS011;70102;44.506;0.220;2023-09-30T04:28:48;9.20;;;2.87;;
76689;SDS011;70102;44.506;0.220;2023-09-30T04:34:21;11.20;;;2.53;;
76689;SDS011;70102;44.506;0.220;2023-09-30T04:39:54;10.17;;;2.53;;
76689;SDS011;70102;44.506;0.220;2023-09-30T04:45:26;10.17;;;3.27;;
76689;SDS011;70102;44.506;0.220;2023-09-30T04:50:58;8.27;;;2.50;;
76689;SDS011;70102;44.506;0.220;2023-09-30T04:56:32;10.10;;;2.60;;
76689;SDS011;70102;44.506;0.220;2023-09-30T05:02:05;6.23;;;2.50;;
76689;SDS011;70102;44.506;0.220;2023-09-30T05:07:37;11.53;;;2.60;;
76689;SDS011;70102;44.506;0.220;2023-09-30T05:13:10;7.07;;;2.30;;
76689;SDS011;70102;44.506;0.220;2023-09-30T05:18:43;9.20;;;2.60;;
76689;SDS011;70102;44.506;0.220;2023-09-30T05:24:16;6.57;;;2.33;;
76689;SDS011;70102;44.506;0.220;2023-09-30T05:29:49;9.33;;;3.40;;
76689;SDS011;70102;44.506;0.220;2023-09-30T05:35:23;11.07;;;2.77;;
76689;SDS011;70102;44.506;0.220;2023-09-30T05:40:55;9.37;;;2.73;;
76689;SDS011;70102;44.506;0.220;2023-09-30T05:46:28;8.37;;;3.00;;
76689;SDS011;70102;44.506;0.220;2023-09-30T05:52:01;12.57;;;2.83;;
76689;SDS011;70102;44.506;0.220;2023-09-30T05:57:35;10.03;;;3.20;;
76689;SDS011;70102;44.506;0.220;2023-09-30T06:03:09;10.80;;;2.80;;
76689;SDS011;70102;44.506;0.220;2023-09-30T06:08:42;10.47;;;2.50;;
76689;SDS011;70102;44.506;0.220;2023-09-30T06:14:15;19.17;;;2.67;;
76689;SDS011;70102;44.506;0.220;2023-09-30T06:19:49;10.23;;;2.90;;
76689;SDS011;70102;44.506;0.220;2023-09-30T06:25:22;5.50;;;2.50;;
76689;SDS011;70102;44.506;0.220;2023-09-30T06:30:54;5.63;;;2.20;;
76689;SDS011;70102;44.506;0.220;2023-09-30T06:36:27;7.53;;;2.53;;
76689;SDS011;70102;44.506;0.220;2023-09-30T06:41:59;5.70;;;2.13;;
76689;SDS011;70102;44.506;0.220;2023-09-30T06:47:33;8.33;;;2.30;;
76689;SDS011;70102;44.506;0.220;2023-09-30T06:53:07;4.10;;;2.40;;
76689;SDS011;70102;44.506;0.220;2023-09-30T06:58:39;9.70;;;2.23;;
76689;SDS011;70102;44.506;0.220;2023-09-30T07:04:11;9.40;;;2.80;;
76689;SDS011;70102;44.506;0.220;2023-09-30T07:09:44;9.27;;;2.30;;
76689;SDS011;70102;44.506;0.220;2023-09-30T07:15:16;8.90;;;3.07;;
76689;SDS011;70102;44.506;0.220;2023-09-30T07:20:49;9.43;;;2.77;;
76689;SDS011;70102;44.506;0.220;2023-09-30T07:26:23;8.53;;;3.03;;
76689;SDS011;70102;44.506;0.220;2023-09-30T07:31:56;8.03;;;2.43;;
76689;SDS011;70102;44.506;0.220;2023-09-30T07:37:29;8.30;;;2.30;;
76689;SDS011;70102;44.506;0.220;2023-09-30T07:43:03;9.37;;;2.30;;
76689;SDS011;70102;44.506;0.220;2023-09-30T07:48:35;5.63;;;2.17;;
76689;SDS011;70102;44.506;0.220;2023-09-30T07:54:08;9.03;;;2.47;;
76689;SDS011;70102;44.506;0.220;2023-09-30T07:59:42;5.87;;;2.40;;
76689;SDS011;70102;44.506;0.220;2023-09-30T08:05:15;11.70;;;2.93;;
76689;SDS011;70102;44.506;0.220;2023-09-30T08:10:47;6.73;;;2.33;;
76689;SDS011;70102;44.506;0.220;2023-09-30T08:16:20;8.37;;;2.80;;
76689;SDS011;70102;44.506;0.220;2023-09-30T08:21:54;7.10;;;2.40;;
76689;SDS011;70102;44.506;0.220;2023-09-30T08:27:28;11.43;;;2.70;;
76689;SDS011;70102;44.506;0.220;2023-09-30T08:33:01;9.63;;;3.40;;
76689;SDS011;70102;44.506;0.220;2023-09-30T08:38:35;9.43;;;2.70;;
76689;SDS011;70102;44.506;0.220;2023-09-30T08:49:40;10.07;;;2.53;;
76689;SDS011;70102;44.506;0.220;2023-09-30T08:55:13;7.53;;;2.43;;
76689;SDS011;70102;44.506;0.220;2023-09-30T09:00:47;8.33;;;2.70;;
76689;SDS011;70102;44.506;0.220;2023-09-30T09:06:19;9.67;;;3.23;;
76689;SDS011;70102;44.506;0.220;2023-09-30T09:11:52;7.63;;;2.27;;
76689;SDS011;70102;44.506;0.220;2023-09-30T09:17:25;7.67;;;2.70;;
76689;SDS011;70102;44.506;0.220;2023-09-30T09:22:59;5.47;;;2.20;;
76689;SDS011;70102;44.506;0.220;2023-09-30T09:28:33;5.20;;;1.87;;
76689;SDS011;70102;44.506;0.220;2023-09-30T09:34:13;7.07;;;2.70;;
76689;SDS011;70102;44.506;0.220;2023-09-30T09:39:39;7.33;;;2.67;;
76689;SDS011;70102;44.506;0.220;2023-09-30T09:50:46;5.53;;;2.50;;
76689;SDS011;70102;44.506;0.220;2023-09-30T09:56:18;6.47;;;1.90;;
76689;SDS011;70102;44.506;0.220;2023-09-30T10:01:52;7.53;;;2.87;;
76689;SDS011;70102;44.506;0.220;2023-09-30T10:12:57;8.07;;;3.13;;
76689;SDS011;70102;44.506;0.220;2023-09-30T10:18:30;6.40;;;2.60;;
76689;SDS011;70102;44.506;0.220;2023-09-30T10:29:43;5.57;;;1.90;;
76689;SDS011;70102;44.506;0.220;2023-09-30T10:35:08;6.93;;;2.03;;
76689;SDS011;70102;44.506;0.220;2023-09-30T10:40:41;6.00;;;2.73;;
76689;SDS011;70102;44.506;0.220;2023-09-30T10:51:46;6.27;;;1.77;;
76689;SDS011;70102;44.506;0.220;2023-09-30T10:57:26;4.90;;;2.30;;
76689;SDS011;70102;44.506;0.220;2023-09-30T11:02:51;4.70;;;2.13;;
76689;SDS011;70102;44.506;0.220;2023-09-30T11:08:24;5.43;;;3.60;;
76689;SDS011;70102;44.506;0.220;2023-09-30T11:13:56;5.47;;;1.70;;
76689;SDS011;70102;44.506;0.220;2023-09-30T11:19:34;4.07;;;1.83;;
76689;SDS011;70102;44.506;0.220;2023-09-30T11:25:03;4.50;;;1.53;;
76689;SDS011;70102;44.506;0.220;2023-09-30T11:30:52;4.70;;;1.83;;
76689;SDS011;70102;44.506;0.220;2023-09-30T11:36:09;4.17;;;1.37;;
76689;SDS011;70102;44.506;0.220;2023-09-30T11:41:41;2.67;;;1.20;;
76689;SDS011;70102;44.506;0.220;2023-09-30T11:47:13;5.20;;;2.00;;
76689;SDS011;70102;44.506;0.220;2023-09-30T11:52:46;6.40;;;1.70;;
76689;SDS011;70102;44.506;0.220;2023-09-30T11:58:19;3.07;;;1.50;;
76689;SDS011;70102;44.506;0.220;2023-09-30T12:03:52;3.80;;;1.40;;
76689;SDS011;70102;44.506;0.220;2023-09-30T12:09:25;2.80;;;1.47;;
76689;SDS011;70102;44.506;0.220;2023-09-30T12:14:57;3.47;;;1.40;;
76689;SDS011;70102;44.506;0.220;2023-09-30T12:20:29;1.40;;;0.83;;
76689;SDS011;70102;44.506;0.220;2023-09-30T12:26:02;3.83;;;1.40;;
76689;SDS011;70102;44.506;0.220;2023-09-30T12:31:35;2.60;;;1.10;;
76689;SDS011;70102;44.506;0.220;2023-09-30T12:37:08;3.10;;;1.07;;
76689;SDS011;70102;44.506;0.220;2023-09-30T12:42:41;2.47;;;1.23;;
76689;SDS011;70102;44.506;0.220;2023-09-30T12:48:13;6.20;;;1.40;;
76689;SDS011;70102;44.506;0.220;2023-09-30T12:53:46;2.77;;;0.83;;
76689;SDS011;70102;44.506;0.220;2023-09-30T12:59:20;2.87;;;1.23;;
76689;SDS011;70102;44.506;0.220;2023-09-30T13:04:53;2.10;;;0.87;;
76689;SDS011;70102;44.506;0.220;2023-09-30T13:10:26;1.13;;;0.90;;
76689;SDS011;70102;44.506;0.220;2023-09-30T13:15:59;1.50;;;0.93;;
76689;SDS011;70102;44.506;0.220;2023-09-30T13:21:33;3.43;;;1.57;;
76689;SDS011;70102;44.506;0.220;2023-09-30T13:27:06;2.10;;;1.23;;
76689;SDS011;70102;44.506;0.220;2023-09-30T13:32:40;1.53;;;0.60;;
76689;SDS011;70102;44.506;0.220;2023-09-30T13:38:13;2.30;;;0.80;;
76689;SDS011;70102;44.506;0.220;2023-09-30T13:43:46;1.50;;;0.83;;
76689;SDS011;70102;44.506;0.220;2023-09-30T13:49:19;1.27;;;0.67;;
76689;SDS011;70102;44.506;0.220;2023-09-30T13:54:51;1.33;;;0.60;;
76689;SDS011;70102;44.506;0.220;2023-09-30T14:00:24;2.23;;;0.80;;
76689;SDS011;70102;44.506;0.220;2023-09-30T14:05:57;0.70;;;0.60;;
76689;SDS011;70102;44.506;0.220;2023-09-30T14:11:30;1.60;;;0.90;;
76689;SDS011;70102;44.506;0.220;2023-09-30T14:17:02;1.57;;;0.93;;
76689;SDS011;70102;44.506;0.220;2023-09-30T14:22:36;0.83;;;0.60;;
76689;SDS011;70102;44.506;0.220;2023-09-30T14:28:08;1.23;;;0.70;;
76689;SDS011;70102;44.506;0.220;2023-09-30T14:33:41;2.03;;;0.80;;
76689;SDS011;70102;44.506;0.220;2023-09-30T14:39:12;3.07;;;1.23;;
76689;SDS011;70102;44.506;0.220;2023-09-30T14:44:45;1.30;;;0.83;;
76689;SDS011;70102;44.506;0.220;2023-09-30T14:50:19;1.37;;;1.00;;
76689;SDS011;70102;44.506;0.220;2023-09-30T14:55:50;1.10;;;0.73;;
76689;SDS011;70102;44.506;0.220;2023-09-30T15:01:22;1.33;;;0.70;;
76689;SDS011;70102;44.506;0.220;2023-09-30T15:06:55;4.43;;;1.40;;
76689;SDS011;70102;44.506;0.220;2023-09-30T15:12:26;1.07;;;0.97;;
76689;SDS011;70102;44.506;0.220;2023-09-30T15:17:59;2.87;;;1.20;;
76689;SDS011;70102;44.506;0.220;2023-09-30T15:23:33;4.07;;;1.23;;
76689;SDS011;70102;44.506;0.220;2023-09-30T15:29:06;1.33;;;1.00;;
76689;SDS011;70102;44.506;0.220;2023-09-30T15:34:39;3.10;;;1.30;;
76689;SDS011;70102;44.506;0.220;2023-09-30T15:40:13;2.77;;;1.50;;
76689;SDS011;70102;44.506;0.220;2023-09-30T15:45:45;1.43;;;0.83;;
76689;SDS011;70102;44.506;0.220;2023-09-30T15:51:18;3.33;;;1.00;;
76689;SDS011;70102;44.506;0.220;2023-09-30T15:56:52;2.93;;;0.83;;
76689;SDS011;70102;44.506;0.220;2023-09-30T16:02:26;2.17;;;1.10;;
76689;SDS011;70102;44.506;0.220;2023-09-30T16:07:58;1.70;;;0.80;;
76689;SDS011;70102;44.506;0.220;2023-09-30T16:13:31;2.17;;;0.90;;
76689;SDS011;70102;44.506;0.220;2023-09-30T16:19:03;2.30;;;1.10;;
76689;SDS011;70102;44.506;0.220;2023-09-30T16:24:36;2.67;;;1.20;;
76689;SDS011;70102;44.506;0.220;2023-09-30T16:30:08;1.60;;;0.77;;
76689;SDS011;70102;44.506;0.220;2023-09-30T16:35:40;2.63;;;0.70;;
76689;SDS011;70102;44.506;0.220;2023-09-30T16:41:12;3.13;;;0.70;;
76689;SDS011;70102;44.506;0.220;2023-09-30T16:46:45;3.60;;;0.70;;
76689;SDS011;70102;44.506;0.220;2023-09-30T16:52:19;1.00;;;0.50;;
76689;SDS011;70102;44.506;0.220;2023-09-30T16:57:52;2.03;;;0.67;;
76689;SDS011;70102;44.506;0.220;2023-09-30T17:03:25;1.23;;;0.53;;
76689;SDS011;70102;44.506;0.220;2023-09-30T17:08:58;1.77;;;0.80;;
76689;SDS011;70102;44.506;0.220;2023-09-30T17:14:31;1.50;;;0.80;;
76689;SDS011;70102;44.506;0.220;2023-09-30T17:20:02;2.73;;;0.73;;
76689;SDS011;70102;44.506;0.220;2023-09-30T17:25:34;0.83;;;0.47;;
76689;SDS011;70102;44.506;0.220;2023-09-30T17:31:07;1.83;;;0.60;;
76689;SDS011;70102;44.506;0.220;2023-09-30T17:36:40;1.33;;;0.70;;
76689;SDS011;70102;44.506;0.220;2023-09-30T17:42:13;2.43;;;0.97;;
76689;SDS011;70102;44.506;0.220;2023-09-30T17:47:46;1.23;;;0.80;;
76689;SDS011;70102;44.506;0.220;2023-09-30T17:53:19;4.23;;;0.90;;
76689;SDS011;70102;44.506;0.220;2023-09-30T17:58:51;1.50;;;0.77;;
76689;SDS011;70102;44.506;0.220;2023-09-30T18:04:24;2.23;;;0.73;;
76689;SDS011;70102;44.506;0.220;2023-09-30T18:09:58;1.87;;;0.80;;
76689;SDS011;70102;44.506;0.220;2023-09-30T18:15:31;1.07;;;0.83;;
76689;SDS011;70102;44.506;0.220;2023-09-30T18:21:03;3.27;;;1.03;;
76689;SDS011;70102;44.506;0.220;2023-09-30T18:26:35;0.83;;;0.60;;
76689;SDS011;70102;44.506;0.220;2023-09-30T18:32:07;1.80;;;0.80;;
76689;SDS011;70102;44.506;0.220;2023-09-30T18:37:40;3.07;;;1.10;;
76689;SDS011;70102;44.506;0.220;2023-09-30T18:43:12;1.00;;;0.80;;
76689;SDS011;70102;44.506;0.220;2023-09-30T18:48:46;2.10;;;0.87;;
76689;SDS011;70102;44.506;0.220;2023-09-30T18:54:18;1.13;;;0.73;;
76689;SDS011;70102;44.506;0.220;2023-09-30T18:59:51;1.90;;;0.73;;
76689;SDS011;70102;44.506;0.220;2023-09-30T19:05:23;1.90;;;0.70;;
76689;SDS011;70102;44.506;0.220;2023-09-30T19:10:56;2.10;;;0.53;;
76689;SDS011;70102;44.506;0.220;2023-09-30T19:16:28;0.83;;;0.70;;
76689;SDS011;70102;44.506;0.220;2023-09-30T19:22:01;3.13;;;0.80;;
76689;SDS011;70102;44.506;0.220;2023-09-30T19:27:34;1.10;;;0.60;;
76689;SDS011;70102;44.506;0.220;2023-09-30T19:33:08;0.97;;;0.63;;
76689;SDS011;70102;44.506;0.220;2023-09-30T19:38:41;1.50;;;0.70;;
76689;SDS011;70102;44.506;0.220;2023-09-30T19:44:14;0.63;;;0.60;;
76689;SDS011;70102;44.506;0.220;2023-09-30T19:49:48;1.57;;;0.80;;
76689;SDS011;70102;44.506;0.220;2023-09-30T19:55:22;0.93;;;0.80;;
76689;SDS011;70102;44.506;0.220;2023-09-30T20:00:54;2.83;;;0.63;;
76689;SDS011;70102;44.506;0.220;2023-09-30T20:06:27;1.80;;;0.80;;
76689;SDS011;70102;44.506;0.220;2023-09-30T20:12:00;1.00;;;0.67;;
76689;SDS011;70102;44.506;0.220;2023-09-30T20:17:32;2.20;;;0.70;;
76689;SDS011;70102;44.506;0.220;2023-09-30T20:23:05;1.13;;;0.60;;
76689;SDS011;70102;44.506;0.220;2023-09-30T20:28:38;0.70;;;0.60;;
76689;SDS011;70102;44.506;0.220;2023-09-30T20:34:11;3.17;;;1.53;;
76689;SDS011;70102;44.506;0.220;2023-09-30T20:39:44;1.23;;;0.60;;
76689;SDS011;70102;44.506;0.220;2023-09-30T20:45:16;1.93;;;0.77;;
76689;SDS011;70102;44.506;0.220;2023-09-30T20:50:49;2.83;;;1.00;;
76689;SDS011;70102;44.506;0.220;2023-09-30T20:56:22;1.07;;;0.73;;
76689;SDS011;70102;44.506;0.220;2023-09-30T21:01:56;1.97;;;0.90;;
76689;SDS011;70102;44.506;0.220;2023-09-30T21:07:29;1.77;;;0.80;;
76689;SDS011;70102;44.506;0.220;2023-09-30T21:13:02;2.20;;;1.23;;
76689;SDS011;70102;44.506;0.220;2023-09-30T21:18:34;1.20;;;0.60;;
76689;SDS011;70102;44.506;0.220;2023-09-30T21:24:07;1.37;;;1.10;;
76689;SDS011;70102;44.506;0.220;2023-09-30T21:29:39;1.90;;;0.93;;
76689;SDS011;70102;44.506;0.220;2023-09-30T21:35:12;3.13;;;1.00;;
76689;SDS011;70102;44.506;0.220;2023-09-30T21:40:46;1.90;;;0.80;;
76689;SDS011;70102;44.506;0.220;2023-09-30T21:46:18;1.43;;;0.93;;
76689;SDS011;70102;44.506;0.220;2023-09-30T21:51:50;4.43;;;0.90;;
76689;SDS011;70102;44.506;0.220;2023-09-30T21:57:22;2.20;;;1.33;;
76689;SDS011;70102;44.506;0.220;2023-09-30T22:02:54;2.40;;;1.37;;
76689;SDS011;70102;44.506;0.220;2023-09-30T22:08:27;5.27;;;1.70;;
76689;SDS011;70102;44.506;0.220;2023-09-30T22:13:58;2.90;;;1.10;;
76689;SDS011;70102;44.506;0.220;2023-09-30T22:19:31;3.33;;;0.97;;
76689;SDS011;70102;44.506;0.220;2023-09-30T22:25:04;2.33;;;0.80;;
76689;SDS011;70102;44.506;0.220;2023-09-30T22:30:36;2.33;;;1.13;;
76689;SDS011;70102;44.506;0.220;2023-09-30T22:36:10;2.23;;;0.90;;
76689;SDS011;70102;44.506;0.220;2023-09-30T22:41:43;1.50;;;0.80;;
76689;SDS011;70102;44.506;0.220;2023-09-30T22:47:16;2.83;;;0.63;;
76689;SDS011;70102;44.506;0.220;2023-09-30T22:52:49;1.37;;;0.77;;
76689;SDS011;70102;44.506;0.220;2023-09-30T22:58:21;1.73;;;0.83;;
76689;SDS011;70102;44.506;0.220;2023-09-30T23:03:54;2.23;;;0.80;;
76689;SDS011;70102;44.506;0.220;2023-09-30T23:09:27;1.87;;;0.97;;
76689;SDS011;70102;44.506;0.220;2023-09-30T23:14:59;1.83;;;0.93;;
76689;SDS011;70102;44.506;0.220;2023-09-30T23:20:32;2.63;;;1.07;;
76689;SDS011;70102;44.506;0.220;2023-09-30T23:26:06;1.40;;;0.87;;
76689;SDS011;70102;44.506;0.220;2023-09-30T23:31:36;2.73;;;1.40;;
76689;SDS011;70102;44.506;0.220;2023-09-30T23:37:09;1.27;;;0.80;;
76689;SDS011;70102;44.506;0.220;2023-09-30T23:42:41;1.67;;;1.00;;
76689;SDS011;70102;44.506;0.220;2023-09-30T23:48:13;3.63;;;0.70;;
76689;SDS011;70102;44.506;0.220;2023-09-30T23:53:46;5.00;;;1.03;;
76689;SDS011;70102;44.506;0.220;2023-09-30T23:59:18;1.00;;;0.83;;
